Time;durP1;ratioP1;P1;durP2;ratioP2;P2;SDS_P1;SDS_P2;PMS_P1;PMS_P2;Temp;Humidity;BMP_temperature;BMP_pressure;BME280_temperature;BME280_humidity;BME280_pressure;Samples;Min_cycle;Max_cycle;Signal;HPM_P1;HPM_P2
2021/05/01 00:01:06;;;;;;;;;;;;;;;-142.75;67.83;78440.78;5031231;28;19917;-76
2021/05/01 00:03:31;;;;;;;;;;;;;;;-142.75;68.09;78438.81;5032698;28;19944;-75
2021/05/01 00:05:56;;;;;;;;;;;;;;;-142.75;68.27;78438.81;5014991;28;20690;-75
2021/05/01 00:08:22;;;;;;;;;;;;;;;-142.75;68.28;78434.88;5032167;28;20375;-76
2021/05/01 00:10:48;;;;;;;;;;;;;;;-142.75;68.37;78434.88;5014507;28;19917;-76
2021/05/01 00:13:13;;;;;;;;;;;;;;;-142.75;68.34;78428.97;5032572;28;19927;-76
2021/05/01 00:15:38;;;;;;;;;;;;;;;-142.75;68.21;78436.84;5032552;28;19917;-76
2021/05/01 00:18:03;;;;;;;;;;;;;;;-142.75;68.09;78442.75;5032381;28;20335;-76
2021/05/01 00:20:29;;;;;;;;;;;;;;;-142.75;67.94;78446.69;5014393;28;20329;-75
2021/05/01 00:22:54;;;;;;;;;;;;;;;-142.75;67.78;78448.66;5032427;28;19952;-75
2021/05/01 00:25:19;;;;;;;;;;;;;;;-142.75;67.68;78448.66;5014721;28;20266;-76
2021/05/01 00:27:44;;;;;;;;;;;;;;;-142.75;67.58;78452.59;5013873;28;20459;-75
2021/05/01 00:30:10;;;;;;;;;;;;;;;-142.75;67.68;78464.41;5014616;28;19917;-76
2021/05/01 00:32:35;;;;;;;;;;;;;;;-142.75;67.84;78460.47;5031696;28;19940;-76
2021/05/01 00:35:01;;;;;;;;;;;;;;;-142.75;68.00;78464.41;5022267;28;19921;-75
2021/05/01 00:37:26;;;;;;;;;;;;;;;-142.75;67.83;78466.38;5052047;28;19928;-75
2021/05/01 00:39:52;;;;;;;;;;;;;;;-142.75;67.87;78464.41;5034162;28;20002;-76
2021/05/01 00:42:17;;;;;;;;;;;;;;;-142.75;68.06;78466.38;5046095;28;20387;-75
2021/05/01 00:44:42;;;;;;;;;;;;;;;-142.75;68.12;78464.41;5032026;28;19923;-75
2021/05/01 00:47:07;;;;;;;;;;;;;;;-142.75;68.13;78460.47;5031898;28;19917;-75
2021/05/01 00:49:32;;;;;;;;;;;;;;;-142.75;68.21;78460.47;5014198;28;19917;-75
2021/05/01 00:51:58;;;;;;;;;;;;;;;-142.75;68.46;78448.66;5031526;28;19923;-75
2021/05/01 00:54:23;;;;;;;;;;;;;;;-142.75;68.42;78448.66;5013994;28;20295;-75
2021/05/01 00:56:48;;;;;;;;;;;;;;;-142.75;68.40;78448.66;5014039;28;20391;-75
2021/05/01 00:59:14;;;;;;;;;;;;;;;-142.75;68.35;78452.59;5031972;28;19917;-75
2021/05/01 01:01:47;;;;;;;;;;;;;;;-142.75;68.39;78456.53;5013465;28;20390;-76
2021/05/01 01:04:13;;;;;;;;;;;;;;;-142.75;68.64;78456.53;5031814;28;20541;-75
2021/05/01 01:06:38;;;;;;;;;;;;;;;-142.75;68.55;78460.47;5031646;28;19931;-75
2021/05/01 01:09:03;;;;;;;;;;;;;;;-142.75;68.49;78462.44;5049815;28;19921;-75
2021/05/01 01:11:28;;;;;;;;;;;;;;;-142.75;68.51;78464.41;5032073;28;19923;-75
2021/05/01 01:13:54;;;;;;;;;;;;;;;-142.75;68.61;78464.41;5013721;28;19925;-75
2021/05/01 01:16:19;;;;;;;;;;;;;;;-142.75;68.83;78464.41;5031474;28;20372;-74
2021/05/01 01:18:44;;;;;;;;;;;;;;;-142.75;68.84;78468.34;5014023;28;20022;-76
2021/05/01 01:21:10;;;;;;;;;;;;;;;-142.75;68.73;78468.34;5013356;28;19917;-76
2021/05/01 01:23:35;;;;;;;;;;;;;;;-142.75;68.81;78468.34;5031467;28;19925;-76
2021/05/01 01:26:00;;;;;;;;;;;;;;;-142.75;69.17;78468.34;5032026;28;19949;-74
2021/05/01 01:28:27;;;;;;;;;;;;;;;-142.75;69.25;78466.38;5051194;28;20002;-75
2021/05/01 01:30:52;;;;;;;;;;;;;;;-142.75;69.54;78468.34;5050646;28;19920;-74
2021/05/01 01:33:17;;;;;;;;;;;;;;;-142.75;69.34;78472.28;5051092;28;19967;-75
2021/05/01 01:35:42;;;;;;;;;;;;;;;-142.75;69.01;78480.16;5033140;28;19982;-76
2021/05/01 01:38:08;;;;;;;;;;;;;;;-142.75;68.79;78484.09;5051394;28;19952;-75
2021/05/01 01:40:35;;;;;;;;;;;;;;;-142.75;68.91;78478.19;5050456;28;19917;-75
2021/05/01 01:43:00;;;;;;;;;;;;;;;-142.75;68.95;78480.16;5043370;28;20371;-75
2021/05/01 01:45:28;;;;;;;;;;;;;;;-142.75;69.09;78486.06;5031068;28;19917;-76
2021/05/01 01:47:54;;;;;;;;;;;;;;;-142.75;68.87;78484.09;5029860;28;20429;-76
2021/05/01 01:50:20;;;;;;;;;;;;;;;-142.75;68.77;78491.97;5030996;28;20003;-74
2021/05/01 01:52:46;;;;;;;;;;;;;;;-142.75;68.82;78499.88;5030953;28;20280;-76
2021/05/01 01:55:12;;;;;;;;;;;;;;;-142.75;68.67;78499.88;5029769;28;19927;-75
2021/05/01 01:57:38;;;;;;;;;;;;;;;-142.75;68.79;78499.88;5030899;28;19921;-76
2021/05/01 02:00:08;;;;;;;;;;;;;;;-142.75;68.65;78507.75;5030968;28;19917;-76
2021/05/01 02:02:33;;;;;;;;;;;;;;;-142.75;68.86;78503.81;5032719;28;20305;-75
2021/05/01 02:04:58;;;;;;;;;;;;;;;-142.75;69.55;78497.91;5050991;28;19917;-74
2021/05/01 02:07:23;;;;;;;;;;;;;;;-142.75;69.36;78495.94;5032950;28;19924;-75
2021/05/01 02:09:48;;;;;;;;;;;;;;;-142.75;69.32;78503.81;5032438;28;19937;-75
2021/05/01 02:12:14;;;;;;;;;;;;;;;-142.75;69.15;78511.69;5050506;28;19916;-76
2021/05/01 02:14:39;;;;;;;;;;;;;;;-142.75;69.07;78507.75;5038260;28;20402;-75
2021/05/01 02:17:04;;;;;;;;;;;;;;;-142.75;69.01;78511.69;5050665;28;20440;-75
2021/05/01 02:19:29;;;;;;;;;;;;;;;-142.75;69.14;78509.72;5049517;28;19924;-75
2021/05/01 02:21:55;;;;;;;;;;;;;;;-142.75;69.06;78503.81;5029229;28;19943;-76
2021/05/01 02:24:20;;;;;;;;;;;;;;;-142.75;69.01;78511.69;5029487;28;19944;-74
2021/05/01 02:26:45;;;;;;;;;;;;;;;-142.75;69.07;78515.63;5030403;28;20008;-76
2021/05/01 02:29:10;;;;;;;;;;;;;;;-142.75;69.08;78515.63;5030836;28;20370;-75
2021/05/01 02:31:35;;;;;;;;;;;;;;;-142.75;68.86;78519.56;5029718;28;20343;-75
2021/05/01 02:34:01;;;;;;;;;;;;;;;-142.75;69.01;78519.56;5047814;28;19925;-76
2021/05/01 02:36:26;;;;;;;;;;;;;;;-142.75;69.14;78517.59;5050635;28;19978;-74
2021/05/01 02:38:51;;;;;;;;;;;;;;;-142.75;69.75;78517.59;5040367;28;19974;-76
2021/05/01 02:41:17;;;;;;;;;;;;;;;-142.75;70.17;78503.81;5028869;28;19974;-76
2021/05/01 02:43:42;;;;;;;;;;;;;;;-142.75;70.73;78491.97;5036447;28;19921;-76
2021/05/01 02:46:07;;;;;;;;;;;;;;;-142.75;70.52;78495.94;5029443;28;19972;-76
2021/05/01 02:48:32;;;;;;;;;;;;;;;-142.75;70.49;78507.75;5030649;28;19917;-75
2021/05/01 02:50:58;;;;;;;;;;;;;;;-142.75;70.52;78503.81;5030586;28;19917;-75
2021/05/01 02:53:23;;;;;;;;;;;;;;;-142.75;70.47;78511.69;5034104;28;19985;-76
2021/05/01 02:55:49;;;;;;;;;;;;;;;-142.75;70.25;78517.59;5034691;28;20298;-75
2021/05/01 02:58:14;;;;;;;;;;;;;;;-142.75;69.95;78519.56;5043297;28;19917;-76
2021/05/01 03:00:39;;;;;;;;;;;;;;;-142.75;69.85;78523.50;5032205;28;19917;-75
2021/05/01 03:03:04;;;;;;;;;;;;;;;-142.75;69.77;78527.44;5034035;28;19917;-76
2021/05/01 03:05:30;;;;;;;;;;;;;;;-142.75;69.92;78523.50;5035963;28;20389;-75
2021/05/01 03:07:55;;;;;;;;;;;;;;;-142.75;69.85;78523.50;5053781;28;19917;-75
2021/05/01 03:10:22;;;;;;;;;;;;;;;-142.75;69.81;78527.44;5053666;28;19920;-74
2021/05/01 03:12:47;;;;;;;;;;;;;;;-142.75;69.90;78525.47;5053565;28;19927;-75
2021/05/01 03:15:13;;;;;;;;;;;;;;;-142.75;69.90;78533.34;5053788;28;20161;-76
2021/05/01 03:17:38;;;;;;;;;;;;;;;-142.75;69.75;78531.38;5053562;28;20446;-76
2021/05/01 03:20:05;;;;;;;;;;;;;;;-142.75;69.99;78533.34;5053530;28;19917;-76
2021/05/01 03:22:30;;;;;;;;;;;;;;;-142.75;70.08;78533.34;5035139;28;19917;-75
2021/05/01 03:24:55;;;;;;;;;;;;;;;-142.75;70.31;78515.63;5053518;28;20012;-75
2021/05/01 03:27:21;;;;;;;;;;;;;;;-142.75;70.26;78511.69;5053453;28;20015;-73
2021/05/01 03:29:46;;;;;;;;;;;;;;;-142.75;70.18;78517.59;5035531;28;19923;-75
2021/05/01 03:32:12;;;;;;;;;;;;;;;-142.75;70.00;78521.53;5034572;28;19923;-76
2021/05/01 03:34:37;;;;;;;;;;;;;;;-142.75;70.09;78509.72;5053127;28;19920;-75
2021/05/01 03:37:02;;;;;;;;;;;;;;;-142.75;70.15;78513.66;5050523;28;19946;-75
2021/05/01 03:39:27;;;;;;;;;;;;;;;-142.75;70.16;78517.59;5032009;28;19921;-75
2021/05/01 03:41:53;;;;;;;;;;;;;;;-142.75;70.00;78523.50;5035058;28;19921;-76
2021/05/01 03:44:18;;;;;;;;;;;;;;;-142.75;70.25;78519.56;5035223;28;19916;-77
2021/05/01 03:46:43;;;;;;;;;;;;;;;-142.75;70.15;78529.41;5050464;28;20012;-76
2021/05/01 03:49:08;;;;;;;;;;;;;;;-142.75;70.24;78531.38;5052942;28;20271;-76
2021/05/01 03:51:33;;;;;;;;;;;;;;;-142.75;70.74;78521.53;5045811;28;19916;-76
2021/05/01 03:53:59;;;;;;;;;;;;;;;-142.75;70.64;78527.44;5041934;28;19925;-76
2021/05/01 03:56:24;;;;;;;;;;;;;;;-142.75;70.69;78523.50;5031732;28;20015;-75
2021/05/01 03:58:49;;;;;;;;;;;;;;;-142.75;70.73;78531.38;5051910;28;20332;-76
2021/05/01 04:01:15;;;;;;;;;;;;;;;-142.75;70.85;78523.50;5031343;28;19924;-76
2021/05/01 04:03:40;;;;;;;;;;;;;;;-142.75;71.04;78513.66;5039551;28;19924;-76
2021/05/01 04:06:05;;;;;;;;;;;;;;;-142.75;71.23;78503.81;5034854;28;19944;-78
2021/05/01 04:08:31;;;;;;;;;;;;;;;-142.75;71.44;78511.69;5031580;28;20024;-76
2021/05/01 04:10:57;;;;;;;;;;;;;;;-142.75;71.42;78511.69;5038039;28;20185;-76
2021/05/01 04:13:22;;;;;;;;;;;;;;;-142.75;71.35;78505.78;5031345;28;19928;-76
2021/05/01 04:15:47;;;;;;;;;;;;;;;-142.75;71.38;78515.63;5041111;28;19917;-75
2021/05/01 04:18:13;;;;;;;;;;;;;;;-142.75;71.30;78519.56;5047756;28;19920;-76
2021/05/01 04:20:39;;;;;;;;;;;;;;;-142.75;71.38;78527.44;5031031;28;20008;-77
2021/05/01 04:23:04;;;;;;;;;;;;;;;-142.75;70.96;78519.56;5032871;28;20012;-75
2021/05/01 04:25:29;;;;;;;;;;;;;;;-142.75;70.76;78523.50;5042855;28;19917;-75
2021/05/01 04:27:54;;;;;;;;;;;;;;;-142.75;70.65;78513.66;5034564;28;19925;-75
2021/05/01 04:30:19;;;;;;;;;;;;;;;-142.75;70.54;78511.69;5031948;28;20021;-75
2021/05/01 04:32:45;;;;;;;;;;;;;;;-142.75;70.50;78511.69;5037641;28;19917;-76
2021/05/01 04:35:10;;;;;;;;;;;;;;;-142.75;70.72;78507.75;5035267;28;19928;-77
2021/05/01 04:37:35;;;;;;;;;;;;;;;-142.75;70.94;78505.78;5044369;28;19940;-76
2021/05/01 04:40:00;;;;;;;;;;;;;;;-142.75;71.04;78503.81;5031396;28;19964;-76
2021/05/01 04:42:26;;;;;;;;;;;;;;;-142.75;71.02;78503.81;5030397;28;19921;-77
2021/05/01 04:44:51;;;;;;;;;;;;;;;-142.75;70.96;78503.81;5034122;28;20019;-76
2021/05/01 04:47:16;;;;;;;;;;;;;;;-142.75;70.74;78505.78;5030735;28;19921;-76
2021/05/01 04:49:42;;;;;;;;;;;;;;;-142.75;70.79;78507.75;5034059;28;20000;-76
2021/05/01 04:52:07;;;;;;;;;;;;;;;-142.75;70.83;78499.88;5033651;28;19917;-76
2021/05/01 04:54:32;;;;;;;;;;;;;;;-142.75;70.89;78497.91;5038495;28;19944;-76
2021/05/01 04:56:57;;;;;;;;;;;;;;;-142.75;70.79;78497.91;5051248;28;19970;-76
2021/05/01 04:59:22;;;;;;;;;;;;;;;-142.75;70.75;78490.00;5045591;28;19943;-76
2021/05/01 05:01:48;;;;;;;;;;;;;;;-142.75;70.92;78480.16;5031396;28;19917;-76
2021/05/01 05:04:13;;;;;;;;;;;;;;;-142.75;71.12;78472.28;5030509;28;19999;-75
2021/05/01 05:06:38;;;;;;;;;;;;;;;-142.75;71.23;78442.75;5030466;28;19975;-76
2021/05/01 05:09:03;;;;;;;;;;;;;;;-142.75;71.23;78428.97;5031581;28;19925;-76
2021/05/01 05:11:29;;;;;;;;;;;;;;;-142.75;71.20;78409.28;5030031;28;19963;-76
2021/05/01 05:13:54;;;;;;;;;;;;;;;-142.75;71.01;78391.53;5030078;28;19936;-76
2021/05/01 05:16:20;;;;;;;;;;;;;;;-142.75;70.89;78362.00;5033665;28;19974;-75
2021/05/01 05:18:45;;;;;;;;;;;;;;;-142.75;70.34;78316.72;5030247;28;19921;-76
2021/05/01 05:21:10;;;;;;;;;;;;;;;-142.75;69.49;78291.09;5030098;28;19967;-76
2021/05/01 05:23:35;;;;;;;;;;;;;;;-142.75;68.97;78257.63;5043660;28;19917;-75
2021/05/01 05:26:01;;;;;;;;;;;;;;;-142.75;68.52;78216.28;5025603;28;19929;-75
2021/05/01 05:28:26;;;;;;;;;;;;;;;-142.75;67.06;78141.44;5038369;28;19924;-76
2021/05/01 05:30:51;;;;;;;;;;;;;;;-142.75;66.10;78106.00;5022471;28;19925;-76
2021/05/01 05:33:16;;;;;;;;;;;;;;;-142.75;64.94;78044.94;5037988;28;20298;-75
2021/05/01 05:35:43;;;;;;;;;;;;;;;-142.75;63.78;77989.81;5023227;28;19924;-76
2021/05/01 05:38:08;;;;;;;;;;;;;;;-142.75;63.11;77911.06;5028575;28;19917;-75
2021/05/01 05:40:34;;;;;;;;;;;;;;;-142.75;61.54;77840.16;5048585;28;19924;-76
2021/05/01 05:43:00;;;;;;;;;;;;;;;-142.75;61.00;77739.75;5021945;28;19917;-76
2021/05/01 05:45:28;;;;;;;;;;;;;;;-142.75;57.65;77649.16;5041921;28;19917;-76
2021/05/01 05:47:53;;;;;;;;;;;;;;;-142.75;55.24;77566.47;5041487;28;19917;-76
2021/05/01 05:50:19;;;;;;;;;;;;;;;-142.75;54.59;77538.91;5023968;28;19924;-75
2021/05/01 05:52:44;;;;;;;;;;;;;;;-142.75;54.44;77533.00;5045263;28;19917;-76
2021/05/01 05:55:09;;;;;;;;;;;;;;;-142.75;54.54;77527.09;5038938;28;19925;-76
2021/05/01 05:57:36;;;;;;;;;;;;;;;-142.75;54.44;77495.59;5039509;28;20004;-76
2021/05/01 06:00:01;;;;;;;;;;;;;;;-142.75;52.92;77444.38;5043181;28;19916;-77
2021/05/01 06:02:26;;;;;;;;;;;;;;;-142.75;51.45;77428.63;5036985;28;19921;-76
2021/05/01 06:04:52;;;;;;;;;;;;;;;-142.75;51.86;77412.88;5019183;28;20361;-76
2021/05/01 06:07:22;;;;;;;;;;;;;;;-142.75;51.84;77430.59;5028402;28;20272;-76
2021/05/01 06:09:47;;;;;;;;;;;;;;;-142.75;52.23;77397.13;5035962;28;19927;-76
2021/05/01 06:12:13;;;;;;;;;;;;;;;-142.75;50.43;77369.56;5028214;28;20317;-76
2021/05/01 06:14:42;;;;;;;;;;;;;;;-142.75;50.68;77316.41;5040302;28;19921;-77
2021/05/01 06:17:08;;;;;;;;;;;;;;;-142.75;49.41;77251.44;5040284;28;20461;-77
2021/05/01 06:19:33;;;;;;;;;;;;;;;-142.75;49.34;77235.69;5030247;28;19967;-77
2021/05/01 06:21:59;;;;;;;;;;;;;;;-142.75;47.68;77178.59;5030044;28;19959;-77
2021/05/01 06:24:24;;;;;;;;;;;;;;;-142.75;48.53;77180.56;5030333;28;19917;-77
2021/05/01 06:26:50;;;;;;;;;;;;;;;-142.75;47.87;77176.63;5034378;28;19916;-74
2021/05/01 06:29:15;;;;;;;;;;;;;;;-142.75;46.64;77133.31;5047381;28;19917;-76
2021/05/01 06:31:41;;;;;;;;;;;;;;;-142.75;46.62;77125.44;5047203;28;20415;-77
2021/05/01 06:34:06;;;;;;;;;;;;;;;-142.75;47.21;77099.84;5035084;28;19928;-77
2021/05/01 06:36:32;;;;;;;;;;;;;;;-142.75;46.55;77074.25;5045013;28;19924;-78
2021/05/01 06:39:02;;;;;;;;;;;;;;;-142.75;46.30;77058.50;5035752;28;19921;-78
2021/05/01 06:41:32;;;;;;;;;;;;;;;-142.75;45.97;77025.03;5044878;28;19921;-77
2021/05/01 06:44:03;;;;;;;;;;;;;;;-142.75;46.25;76979.75;5044735;28;20340;-78
2021/05/01 06:46:29;;;;;;;;;;;;;;;-142.75;43.81;76956.13;5049881;28;19924;-79
2021/05/01 06:48:57;;;;;;;;;;;;;;;-142.75;44.16;76983.69;5049906;28;19917;-77
2021/05/01 06:51:22;;;;;;;;;;;;;;;-142.75;44.23;76973.84;5033153;28;19917;-77
2021/05/01 06:53:48;;;;;;;;;;;;;;;-142.75;44.16;76983.69;5033549;28;20017;-77
2021/05/01 06:56:14;;;;;;;;;;;;;;;-142.75;44.02;76999.44;5024297;28;19917;-77
2021/05/01 06:58:40;;;;;;;;;;;;;;;-142.75;45.19;76975.81;5047907;28;19917;-78
2021/05/01 07:01:08;;;;;;;;;;;;;;;-142.75;43.55;76930.53;5053594;28;20348;-78
2021/05/01 07:03:35;;;;;;;;;;;;;;;-142.75;43.38;77044.72;5047562;28;20006;-78
2021/05/01 07:06:01;;;;;;;;;;;;;;;-142.75;44.70;77040.78;5048327;28;19924;-78
2021/05/01 07:08:26;;;;;;;;;;;;;;;-142.75;45.50;77113.63;5053293;28;19917;-78
2021/05/01 07:10:52;;;;;;;;;;;;;;;-142.75;45.40;77054.56;5053259;28;20390;-76
2021/05/01 07:13:17;;;;;;;;;;;;;;;-142.75;43.67;77015.19;5041787;28;19970;-76
2021/05/01 07:15:43;;;;;;;;;;;;;;;-142.75;44.17;77013.22;5036406;28;20346;-77
2021/05/01 07:18:11;;;;;;;;;;;;;;;-142.75;43.02;76924.63;5047231;28;19935;-76
2021/05/01 07:20:37;;;;;;;;;;;;;;;-142.75;43.15;76806.50;5035483;28;19983;-77
2021/05/01 07:23:02;;;;;;;;;;;;;;;-142.75;41.97;76889.19;5037322;28;20214;-77
2021/05/01 07:25:27;;;;;;;;;;;;;;;-142.75;43.98;77070.31;5035294;28;19916;-76
2021/05/01 07:28:01;;;;;;;;;;;;;;;-142.75;44.92;77164.81;5036334;28;20003;-78
2021/05/01 07:30:28;;;;;;;;;;;;;;;-142.75;46.43;77271.13;5016578;28;19944;-76
2021/05/01 07:32:59;;;;;;;;;;;;;;;-142.75;47.28;77279.00;5021330;28;20386;-78
2021/05/01 07:35:25;;;;;;;;;;;;;;;-142.75;46.54;77184.50;5035632;28;20300;-76
2021/05/01 07:37:51;;;;;;;;;;;;;;;-142.75;45.04;76960.06;5035221;28;19970;-76
2021/05/01 07:40:25;;;;;;;;;;;;;;;-142.75;41.69;76849.81;5035509;28;19921;-77
2021/05/01 07:42:51;;;;;;;;;;;;;;;-142.75;40.90;76873.44;5048366;28;19921;-77
2021/05/01 07:45:21;;;;;;;;;;;;;;;-142.75;42.96;77054.56;5053778;28;19923;-77
2021/05/01 07:47:48;;;;;;;;;;;;;;;-142.75;44.88;77210.09;5036250;28;20465;-76
2021/05/01 07:50:14;;;;;;;;;;;;;;;-142.75;46.60;77279.00;5034342;28;19917;-77
2021/05/01 07:52:39;;;;;;;;;;;;;;;-142.75;47.78;77340.03;5015449;28;19924;-76
2021/05/01 07:55:05;;;;;;;;;;;;;;;-142.75;47.77;77424.69;5015554;28;19921;-76
2021/05/01 07:57:30;;;;;;;;;;;;;;;-142.75;48.67;77393.19;5049026;28;20460;-76
2021/05/01 07:59:55;;;;;;;;;;;;;;;-142.75;48.03;77227.81;5029849;28;19924;-76
2021/05/01 08:02:20;;;;;;;;;;;;;;;-142.75;44.86;77074.25;5042955;28;19968;-76
2021/05/01 08:04:45;;;;;;;;;;;;;;;-142.75;43.45;77090.00;5028069;28;19917;-77
2021/05/01 08:07:11;;;;;;;;;;;;;;;-142.75;42.01;76938.41;5025191;28;19960;-76
2021/05/01 08:09:36;;;;;;;;;;;;;;;-142.75;40.07;76887.22;5041476;28;20301;-77
2021/05/01 08:12:01;;;;;;;;;;;;;;;-142.75;39.88;76800.63;5036612;28;19924;-77
2021/05/01 08:14:26;;;;;;;;;;;;;;;-142.75;39.07;76743.53;5042857;28;19956;-76
2021/05/01 08:16:52;;;;;;;;;;;;;;;-142.75;40.81;76855.72;5038161;28;19924;-76
2021/05/01 08:19:17;;;;;;;;;;;;;;;-142.75;42.89;77101.81;5041379;28;19940;-77
2021/05/01 08:21:42;;;;;;;;;;;;;;;-142.75;44.54;77231.75;5037926;28;20007;-77
2021/05/01 08:24:07;;;;;;;;;;;;;;;-142.75;45.09;77310.50;5021839;28;19917;-77
2021/05/01 08:26:33;;;;;;;;;;;;;;;-142.75;46.30;77355.78;5015221;28;19917;-77
2021/05/01 08:28:59;;;;;;;;;;;;;;;-142.75;45.90;77194.34;5034996;28;19968;-77
2021/05/01 08:31:24;;;;;;;;;;;;;;;-142.75;42.65;76954.16;5050527;28;19916;-76
2021/05/01 08:33:49;;;;;;;;;;;;;;;-142.75;40.09;76773.06;5049587;28;20287;-75
2021/05/01 08:36:15;;;;;;;;;;;;;;;-142.75;38.70;76680.53;5031941;28;19959;-76
2021/05/01 08:38:40;;;;;;;;;;;;;;;-142.75;38.53;76777.00;5042944;28;19953;-77
2021/05/01 08:41:06;;;;;;;;;;;;;;;-142.75;40.06;76964.00;5041679;28;19999;-76
2021/05/01 08:43:31;;;;;;;;;;;;;;;-142.75;43.45;77225.84;5037795;28;20045;-76
2021/05/01 08:45:58;;;;;;;;;;;;;;;-142.75;44.81;77322.31;5021498;28;19928;-76
2021/05/01 08:48:25;;;;;;;;;;;;;;;-142.75;44.98;77405.00;5024513;28;19944;-76
2021/05/01 08:50:53;;;;;;;;;;;;;;;-142.75;46.18;77456.22;5016605;28;20443;-76
2021/05/01 08:53:18;;;;;;;;;;;;;;;-142.75;47.02;77511.34;5050169;28;19959;-76
2021/05/01 08:55:43;;;;;;;;;;;;;;;-142.75;48.26;77471.97;5042439;28;19948;-75
2021/05/01 08:58:10;;;;;;;;;;;;;;;-142.75;46.45;77164.81;5033897;28;19923;-76
2021/05/01 09:00:37;;;;;;;;;;;;;;;-142.75;42.64;76910.84;5033606;28;20015;-78
2021/05/01 09:03:08;;;;;;;;;;;;;;;-142.75;39.30;76684.47;5030673;28;19917;-75
2021/05/01 09:05:35;;;;;;;;;;;;;;;-142.75;38.26;76647.06;5046478;28;19924;-76
2021/05/01 09:08:03;;;;;;;;;;;;;;;-142.75;37.18;76609.66;5037605;28;19917;-77
2021/05/01 09:10:35;;;;;;;;;;;;;;;-142.75;38.51;76739.59;5038628;28;20379;-75
2021/05/01 09:13:10;;;;;;;;;;;;;;;-142.75;40.22;76901.00;5031691;28;19917;-76
2021/05/01 09:15:37;;;;;;;;;;;;;;;-142.75;40.89;76916.75;5025974;28;20383;-75
2021/05/01 09:18:03;;;;;;;;;;;;;;;-142.75;39.96;76924.63;5015208;28;19921;-75
2021/05/01 09:20:28;;;;;;;;;;;;;;;-142.75;39.80;77011.25;5031071;28;19924;-75
2021/05/01 09:22:56;;;;;;;;;;;;;;;-142.75;38.03;76849.81;5013637;28;19917;-76
2021/05/01 09:25:21;;;;;;;;;;;;;;;-142.75;36.14;76847.84;5039966;28;19916;-75
2021/05/01 09:27:59;;;;;;;;;;;;;;;-142.75;36.48;76767.16;5031223;28;19921;-74
2021/05/01 09:30:27;;;;;;;;;;;;;;;-142.75;36.74;76794.69;5032368;28;20317;-74
2021/05/01 09:33:12;;;;;;;;;;;;;;;-142.75;35.32;76715.97;5051196;28;20279;-74
2021/05/01 09:35:38;;;;;;;;;;;;;;;-142.75;34.33;76542.72;5020592;28;19929;-74
2021/05/01 09:38:03;;;;;;;;;;;;;;;-142.75;34.38;76424.63;5013579;28;19940;-74
2021/05/01 09:40:31;;;;;;;;;;;;;;;-142.75;32.81;76465.97;5036210;28;20279;-73
2021/05/01 09:43:07;;;;;;;;;;;;;;;-142.75;33.75;76682.50;5075414;22;19963;-75
2021/05/01 09:45:32;;;;;;;;;;;;;;;-142.75;36.20;77001.41;5076381;28;19939;-75
2021/05/01 09:47:57;;;;;;;;;;;;;;;-142.75;37.52;76865.56;5064847;28;20003;-75
2021/05/01 09:50:23;;;;;;;;;;;;;;;-142.75;36.04;76686.44;5078657;28;19916;-74
2021/05/01 09:52:56;;;;;;;;;;;;;;;-142.75;35.82;76546.66;5058709;28;19928;-75
2021/05/01 09:55:39;;;;;;;;;;;;;;;-142.75;34.52;76426.59;5070998;28;19925;-75
2021/05/01 09:58:10;;;;;;;;;;;;;;;-142.75;34.36;76475.81;5071015;28;20445;-75
2021/05/01 10:00:35;;;;;;;;;;;;;;;-142.75;35.09;76786.84;5067169;28;19939;-74
2021/05/01 10:03:01;;;;;;;;;;;;;;;-142.75;37.57;76964.00;5060608;28;19921;-75
2021/05/01 10:05:26;;;;;;;;;;;;;;;-142.75;38.78;77028.97;5053459;28;19916;-74
2021/05/01 10:07:52;;;;;;;;;;;;;;;-142.75;37.74;76932.50;5056485;28;19973;-75
2021/05/01 10:10:17;;;;;;;;;;;;;;;-142.75;37.43;77015.19;5074972;28;20011;-75
2021/05/01 10:12:43;;;;;;;;;;;;;;;-142.75;38.40;76975.81;5074429;28;20318;-75
2021/05/01 10:15:19;;;;;;;;;;;;;;;-142.75;38.72;76782.91;5074359;28;19924;-75
2021/05/01 10:17:48;;;;;;;;;;;;;;;-142.75;37.50;76641.16;5073536;28;19916;-76
2021/05/01 10:20:15;;;;;;;;;;;;;;;-142.75;34.93;76731.72;5070691;28;19942;-75
2021/05/01 10:22:44;;;;;;;;;;;;;;;-142.75;36.10;76704.16;5071790;28;19916;-77
2021/05/01 10:25:11;;;;;;;;;;;;;;;-142.75;35.84;76641.16;5068969;28;19917;-75
2021/05/01 10:27:46;;;;;;;;;;;;;;;-142.75;34.53;76623.44;5070852;28;20279;-75
2021/05/01 10:30:27;;;;;;;;;;;;;;;-142.75;36.29;76499.44;5074706;28;20313;-75
2021/05/01 10:32:53;;;;;;;;;;;;;;;-142.75;34.01;76414.78;5074627;28;20317;-76
2021/05/01 10:35:19;;;;;;;;;;;;;;;-142.75;35.64;76308.50;5054931;28;19925;-75
2021/05/01 10:37:54;;;;;;;;;;;;;;;-142.75;32.49;76377.38;5054405;28;19932;-76
2021/05/01 10:40:19;;;;;;;;;;;;;;;-142.75;33.49;76369.50;5060570;28;20014;-75
2021/05/01 10:42:44;;;;;;;;;;;;;;;-142.75;32.14;76243.53;5074296;28;20043;-77
2021/05/01 10:45:10;;;;;;;;;;;;;;;-142.75;33.59;76176.63;5052080;28;19920;-75
2021/05/01 10:47:35;;;;;;;;;;;;;;;-142.75;33.19;76318.34;5054500;28;19916;-76
2021/05/01 10:50:17;;;;;;;;;;;;;;;-142.75;35.27;76633.28;5043325;28;19920;-74
2021/05/01 10:52:43;;;;;;;;;;;;;;;-142.75;37.29;76944.31;5056558;28;19975;-74
2021/05/01 10:55:08;;;;;;;;;;;;;;;-142.75;37.68;76948.25;5054147;28;20037;-76
2021/05/01 10:57:39;;;;;;;;;;;;;;;-142.75;38.11;77001.41;5054091;28;19917;-74
2021/05/01 11:00:04;;;;;;;;;;;;;;;-142.75;39.74;77109.69;5053891;28;20376;-74
2021/05/01 11:02:34;;;;;;;;;;;;;;;-142.75;40.75;77164.81;5053775;28;19924;-75
2021/05/01 11:05:00;;;;;;;;;;;;;;;-142.75;42.29;77227.81;5053777;28;19920;-75
2021/05/01 11:07:34;;;;;;;;;;;;;;;-142.75;42.57;77168.75;5053872;28;19924;-77
2021/05/01 11:10:03;;;;;;;;;;;;;;;-142.75;41.82;77153.00;5055505;28;20365;-75
2021/05/01 11:12:29;;;;;;;;;;;;;;;-142.75;40.50;76975.81;5066927;28;19916;-74
2021/05/01 11:14:58;;;;;;;;;;;;;;;-142.75;38.94;76944.31;5073629;28;19920;-75
2021/05/01 11:17:32;;;;;;;;;;;;;;;-142.75;39.52;77003.38;5073666;28;19916;-73
2021/05/01 11:19:58;;;;;;;;;;;;;;;-142.75;37.76;76863.59;5073699;28;20328;-76
2021/05/01 11:22:26;;;;;;;;;;;;;;;-142.75;37.43;76804.53;5040178;28;19924;-75
2021/05/01 11:24:51;;;;;;;;;;;;;;;-142.75;38.05;76885.25;5073571;28;19916;-76
2021/05/01 11:27:18;;;;;;;;;;;;;;;-142.75;38.46;76859.66;5073528;28;19923;-74
2021/05/01 11:29:43;;;;;;;;;;;;;;;-142.75;37.89;76769.13;5073340;28;20467;-75
2021/05/01 11:32:08;;;;;;;;;;;;;;;-142.75;36.54;76757.31;5072658;28;20007;-76
2021/05/01 11:34:34;;;;;;;;;;;;;;;-142.75;36.74;76849.81;5073424;28;19927;-76
2021/05/01 11:37:03;;;;;;;;;;;;;;;-142.75;36.52;76932.50;5073600;28;19917;-75
2021/05/01 11:39:29;;;;;;;;;;;;;;;-142.75;37.27;76932.50;5072320;28;20305;-75
2021/05/01 11:41:55;;;;;;;;;;;;;;;-142.75;38.01;76983.69;5072694;28;19942;-75
2021/05/01 11:44:22;;;;;;;;;;;;;;;-142.75;38.83;76916.75;5044286;28;19954;-76
2021/05/01 11:46:50;;;;;;;;;;;;;;;-142.75;37.47;76885.25;5070345;28;19916;-76
2021/05/01 11:49:17;;;;;;;;;;;;;;;-142.75;36.44;76877.38;5073114;28;19960;-76
2021/05/01 11:52:02;;;;;;;;;;;;;;;-142.75;37.89;76865.56;5072601;28;19944;-76
2021/05/01 11:54:35;;;;;;;;;;;;;;;-142.75;36.20;76910.84;5053776;28;19973;-75
2021/05/01 11:57:12;;;;;;;;;;;;;;;-142.75;37.98;77062.44;5072569;28;19916;-73
2021/05/01 11:59:44;;;;;;;;;;;;;;;-142.75;38.97;77115.59;5072323;28;19916;-73
2021/05/01 12:02:11;;;;;;;;;;;;;;;-142.75;40.31;77044.72;5049572;28;19959;-74
2021/05/01 12:04:48;;;;;;;;;;;;;;;-142.75;38.37;76967.94;5051547;28;19916;-74
2021/05/01 12:07:18;;;;;;;;;;;;;;;-142.75;37.03;77023.06;5071237;28;19916;-75
2021/05/01 12:09:44;;;;;;;;;;;;;;;-142.75;38.58;77058.50;5071817;28;19993;-74
2021/05/01 12:12:11;;;;;;;;;;;;;;;-142.75;40.99;76999.44;5071497;28;19917;-75
2021/05/01 12:14:36;;;;;;;;;;;;;;;-142.75;38.78;76991.56;5072630;28;19926;-75
2021/05/01 12:17:11;;;;;;;;;;;;;;;-142.75;39.08;77005.34;5057019;28;19917;-75
2021/05/01 12:19:41;;;;;;;;;;;;;;;-142.75;37.85;77030.94;5052420;28;20379;-75
2021/05/01 12:22:23;;;;;;;;;;;;;;;-142.75;37.79;77074.25;5051880;28;19935;-75
2021/05/01 12:24:48;;;;;;;;;;;;;;;-142.75;41.08;77030.94;5068606;28;19924;-75